ADDS METAR Data

Data at: 2339 UTC 26 May 2018

METAR for:KSAN (San Diego Intl Arpt, CA, US)
Text:KSAN 262327Z 25010KT 10SM BKN022 OVC031 18/12 A3001 RMK AO2 T01830117
Temperature: 18.3°C ( 65°F)
Dewpoint: 11.7°C ( 53°F) [RH = 65%]
Pressure (altimeter):30.01 inches Hg (1016.3 mb)
Winds:from the WSW (250 degrees) at 12 MPH (10 knots; 5.1 m/s)
Visibility:10 or more sm (16+ km)
Ceiling:2200 feet AGL
Clouds: broken clouds at 2200 feet AGL, overcast cloud deck at 3100 feet AGL